WZZ442 EGKK-LFPO
Flight info
| Callsign | WZZ442 |
|---|---|
| Flight time | 0h 43m |
| Altitude | 29000 |
| Route | SFD4Z SFD Y47 DRAKE L151 SITET A34 BOBSA BOBSA9E |
| Aircraft | A20N/M-V/N |
Departure
| Time | 2026-05-04 19:58 |
|---|---|
| Airport | London Gatwick Airport (EGKK) |
Arrival
| Time | 2026-05-04 20:42 |
|---|---|
| Airport | Paris-Orly Airport (LFPO) |
| Time | Latitude | Longitude | Altitude | Speed | Heading |
|---|---|---|---|---|---|
| 2026-05-04 19:34 | 51.15560 | -0.17812 | 212 ft | 0 kts | 347° |
| 2026-05-04 19:46 | 51.15549 | -0.17808 | 205 ft | 2 kts | 347° |
| 2026-05-04 19:46 | 51.15536 | -0.17803 | 209 ft | 2 kts | 347° |
| 2026-05-04 19:46 | 51.15523 | -0.17799 | 210 ft | 2 kts | 342° |
| 2026-05-04 19:46 | 51.15510 | -0.17790 | 215 ft | 2 kts | 313° |
| 2026-05-04 19:47 | 51.15505 | -0.17774 | 211 ft | 0 kts | 258° |
| 2026-05-04 19:50 | 51.15502 | -0.17790 | 214 ft | 6 kts | 258° |
| 2026-05-04 19:50 | 51.15481 | -0.17949 | 211 ft | 23 kts | 257° |
| 2026-05-04 19:50 | 51.15444 | -0.18212 | 212 ft | 16 kts | 257° |
| 2026-05-04 19:50 | 51.15358 | -0.18268 | 213 ft | 17 kts | 168° |
| 2026-05-04 19:51 | 51.15263 | -0.18232 | 212 ft | 0 kts | 168° |
| 2026-05-04 19:52 | 51.15258 | -0.18231 | 205 ft | 2 kts | 168° |
| 2026-05-04 19:52 | 51.15235 | -0.18223 | 209 ft | 5 kts | 168° |
| 2026-05-04 19:52 | 51.15199 | -0.18231 | 215 ft | 6 kts | 216° |
| 2026-05-04 19:52 | 51.15185 | -0.18307 | 215 ft | 11 kts | 259° |
| 2026-05-04 19:53 | 51.15165 | -0.18474 | 209 ft | 18 kts | 259° |
| 2026-05-04 19:53 | 51.15137 | -0.18685 | 206 ft | 21 kts | 258° |
| 2026-05-04 19:53 | 51.15105 | -0.18922 | 207 ft | 23 kts | 258° |
| 2026-05-04 19:53 | 51.15070 | -0.19180 | 208 ft | 25 kts | 256° |
| 2026-05-04 19:54 | 51.15032 | -0.19456 | 204 ft | 26 kts | 258° |
| 2026-05-04 19:54 | 51.14991 | -0.19749 | 204 ft | 28 kts | 258° |
| 2026-05-04 19:54 | 51.14947 | -0.20064 | 205 ft | 30 kts | 257° |
| 2026-05-04 19:54 | 51.14912 | -0.20328 | 207 ft | 21 kts | 257° |
| 2026-05-04 19:55 | 51.14891 | -0.20472 | 203 ft | 5 kts | 257° |
| 2026-05-04 19:55 | 51.14880 | -0.20559 | 210 ft | 13 kts | 258° |
| 2026-05-04 19:55 | 51.14786 | -0.20684 | 211 ft | 24 kts | 210° |
| 2026-05-04 19:55 | 51.14695 | -0.20711 | 205 ft | 0 kts | 167° |
| 2026-05-04 19:57 | 51.14688 | -0.20708 | 207 ft | 3 kts | 167° |
| 2026-05-04 19:57 | 51.14636 | -0.20689 | 209 ft | 14 kts | 167° |
| 2026-05-04 19:57 | 51.14598 | -0.20562 | 217 ft | 17 kts | 79° |
| 2026-05-04 19:57 | 51.14661 | -0.20108 | 207 ft | 73 kts | 77° |
| 2026-05-04 19:58 | 51.14810 | -0.19028 | 208 ft | 124 kts | 78° |
| 2026-05-04 19:58 | 51.15020 | -0.17480 | 305 ft | 152 kts | 77° |
| 2026-05-04 19:58 | 51.15228 | -0.15867 | 835 ft | 147 kts | 78° |
| 2026-05-04 19:58 | 51.15420 | -0.14276 | 1403 ft | 145 kts | 78° |
| 2026-05-04 19:59 | 51.15595 | -0.12701 | 1947 ft | 145 kts | 78° |
| 2026-05-04 19:59 | 51.15790 | -0.11056 | 2429 ft | 155 kts | 77° |
| 2026-05-04 19:59 | 51.16011 | -0.09333 | 3002 ft | 163 kts | 78° |
| 2026-05-04 19:59 | 51.16088 | -0.07513 | 3624 ft | 170 kts | 95° |
| 2026-05-04 20:00 | 51.15627 | -0.05823 | 4352 ft | 169 kts | 133° |
| 2026-05-04 20:00 | 51.14583 | -0.04896 | 4916 ft | 181 kts | 171° |
| 2026-05-04 20:00 | 51.13291 | -0.04711 | 5449 ft | 192 kts | 174° |
| 2026-05-04 20:00 | 51.11942 | -0.04421 | 6045 ft | 199 kts | 170° |
| 2026-05-04 20:01 | 51.10591 | -0.04088 | 6791 ft | 197 kts | 171° |
| 2026-05-04 20:01 | 51.09231 | -0.03643 | 7425 ft | 200 kts | 162° |
| 2026-05-04 20:01 | 51.07871 | -0.02949 | 7950 ft | 211 kts | 161° |
| 2026-05-04 20:01 | 51.06453 | -0.02147 | 8494 ft | 221 kts | 159° |
| 2026-05-04 20:02 | 51.04997 | -0.01246 | 9065 ft | 229 kts | 159° |
| 2026-05-04 20:02 | 51.03419 | -0.00430 | 9388 ft | 250 kts | 164° |
| 2026-05-04 20:02 | 51.01702 | 0.00304 | 9950 ft | 257 kts | 165° |
| 2026-05-04 20:02 | 50.99956 | 0.01044 | 10516 ft | 267 kts | 164° |
| 2026-05-04 20:03 | 50.98116 | 0.01858 | 10848 ft | 287 kts | 163° |
| 2026-05-04 20:03 | 50.96174 | 0.02750 | 11509 ft | 293 kts | 163° |
| 2026-05-04 20:03 | 50.94205 | 0.03671 | 12262 ft | 297 kts | 162° |
| 2026-05-04 20:03 | 50.92210 | 0.04608 | 13024 ft | 300 kts | 162° |
| 2026-05-04 20:04 | 50.90195 | 0.05555 | 13764 ft | 305 kts | 162° |
| 2026-05-04 20:04 | 50.88145 | 0.06521 | 14469 ft | 307 kts | 162° |
| 2026-05-04 20:04 | 50.86093 | 0.07489 | 15161 ft | 309 kts | 162° |
| 2026-05-04 20:04 | 50.84021 | 0.08461 | 15881 ft | 310 kts | 162° |
| 2026-05-04 20:05 | 50.81966 | 0.09424 | 16507 ft | 314 kts | 162° |
| 2026-05-04 20:05 | 50.79901 | 0.10391 | 17181 ft | 315 kts | 163° |
| 2026-05-04 20:05 | 50.77776 | 0.11347 | 17883 ft | 318 kts | 167° |
| 2026-05-04 20:05 | 50.75558 | 0.11713 | 18465 ft | 323 kts | 181° |
| 2026-05-04 20:06 | 50.73327 | 0.11239 | 19055 ft | 325 kts | 193° |
| 2026-05-04 20:06 | 50.71089 | 0.10398 | 19333 ft | 339 kts | 193° |
| 2026-05-04 20:06 | 50.68739 | 0.09532 | 19492 ft | 355 kts | 192° |
| 2026-05-04 20:06 | 50.66280 | 0.08636 | 19639 ft | 370 kts | 192° |
| 2026-05-04 20:07 | 50.63731 | 0.07712 | 19956 ft | 379 kts | 192° |
| 2026-05-04 20:07 | 50.61186 | 0.06791 | 20550 ft | 380 kts | 192° |
| 2026-05-04 20:07 | 50.58609 | 0.05862 | 21176 ft | 381 kts | 192° |
| 2026-05-04 20:07 | 50.56018 | 0.04929 | 21767 ft | 382 kts | 192° |
| 2026-05-04 20:08 | 50.53417 | 0.03994 | 22348 ft | 384 kts | 192° |
| 2026-05-04 20:08 | 50.50805 | 0.03055 | 22925 ft | 385 kts | 192° |
| 2026-05-04 20:08 | 50.48186 | 0.02115 | 23492 ft | 387 kts | 192° |
| 2026-05-04 20:08 | 50.45552 | 0.01170 | 23963 ft | 389 kts | 192° |
| 2026-05-04 20:09 | 50.42907 | 0.00222 | 24404 ft | 391 kts | 192° |
| 2026-05-04 20:09 | 50.40233 | -0.00737 | 24785 ft | 396 kts | 192° |
| 2026-05-04 20:09 | 50.37542 | -0.01699 | 25243 ft | 397 kts | 192° |
| 2026-05-04 20:09 | 50.34851 | -0.02660 | 25739 ft | 397 kts | 192° |
| 2026-05-04 20:10 | 50.32150 | -0.03624 | 26153 ft | 399 kts | 192° |
| 2026-05-04 20:10 | 50.29471 | -0.04579 | 26563 ft | 400 kts | 192° |
| 2026-05-04 20:10 | 50.26746 | -0.05549 | 26982 ft | 402 kts | 192° |
| 2026-05-04 20:10 | 50.23996 | -0.06436 | 27378 ft | 403 kts | 186° |
| 2026-05-04 20:11 | 50.21201 | -0.06552 | 27753 ft | 405 kts | 175° |
| 2026-05-04 20:11 | 50.18431 | -0.05732 | 28136 ft | 406 kts | 163° |
| 2026-05-04 20:11 | 50.15808 | -0.04080 | 28548 ft | 408 kts | 157° |
| 2026-05-04 20:11 | 50.13209 | -0.02253 | 28874 ft | 410 kts | 158° |
| 2026-05-04 20:12 | 50.10578 | -0.00479 | 28974 ft | 414 kts | 161° |
| 2026-05-04 20:12 | 50.04989 | 0.02005 | 28982 ft | 417 kts | 167° |
| 2026-05-04 20:13 | 49.99391 | 0.04190 | 28984 ft | 417 kts | 167° |
| 2026-05-04 20:13 | 49.93758 | 0.06400 | 28971 ft | 416 kts | 167° |
| 2026-05-04 20:14 | 49.88133 | 0.08607 | 28975 ft | 417 kts | 167° |
| 2026-05-04 20:14 | 49.82541 | 0.10796 | 28969 ft | 416 kts | 167° |
| 2026-05-04 20:15 | 49.76916 | 0.12992 | 28970 ft | 416 kts | 167° |
| 2026-05-04 20:15 | 49.71291 | 0.15183 | 28972 ft | 416 kts | 167° |
| 2026-05-04 20:16 | 49.65677 | 0.17381 | 28971 ft | 416 kts | 166° |
| 2026-05-04 20:16 | 49.60081 | 0.19648 | 28972 ft | 416 kts | 166° |
| 2026-05-04 20:17 | 49.54509 | 0.21901 | 28972 ft | 416 kts | 166° |
| 2026-05-04 20:17 | 49.48926 | 0.24144 | 28970 ft | 412 kts | 167° |
| 2026-05-04 20:18 | 49.43392 | 0.26359 | 28970 ft | 413 kts | 167° |
| 2026-05-04 20:18 | 49.37801 | 0.28592 | 28973 ft | 413 kts | 167° |
| 2026-05-04 20:19 | 49.32270 | 0.30796 | 28970 ft | 413 kts | 167° |
| 2026-05-04 20:19 | 49.26726 | 0.33094 | 28967 ft | 412 kts | 165° |
| 2026-05-04 20:20 | 49.21208 | 0.35506 | 28941 ft | 412 kts | 165° |
| 2026-05-04 20:20 | 49.15684 | 0.37897 | 28939 ft | 412 kts | 166° |
| 2026-05-04 20:21 | 49.10169 | 0.40264 | 28943 ft | 412 kts | 166° |
| 2026-05-04 20:21 | 49.01922 | 0.43673 | 28940 ft | 410 kts | 166° |
| 2026-05-04 20:22 | 48.96343 | 0.45956 | 28937 ft | 419 kts | 166° |
| 2026-05-04 20:22 | 48.90728 | 0.48258 | 28910 ft | 416 kts | 166° |
| 2026-05-04 20:23 | 48.87942 | 0.49399 | 28562 ft | 413 kts | 166° |
| 2026-05-04 20:23 | 48.85165 | 0.50535 | 27986 ft | 412 kts | 166° |
| 2026-05-04 20:23 | 48.82402 | 0.51663 | 27354 ft | 410 kts | 166° |
| 2026-05-04 20:23 | 48.80579 | 0.52407 | 26924 ft | 408 kts | 165° |
| 2026-05-04 20:24 | 48.77152 | 0.54702 | 26060 ft | 408 kts | 147° |
| 2026-05-04 20:24 | 48.75036 | 0.57523 | 25450 ft | 408 kts | 131° |
| 2026-05-04 20:24 | 48.73917 | 0.59876 | 25055 ft | 408 kts | 121° |
| 2026-05-04 20:24 | 48.72826 | 0.63817 | 24489 ft | 407 kts | 105° |
| 2026-05-04 20:25 | 48.72276 | 0.68026 | 23960 ft | 405 kts | 101° |
| 2026-05-04 20:25 | 48.71783 | 0.72202 | 23439 ft | 401 kts | 101° |
| 2026-05-04 20:25 | 48.71293 | 0.76291 | 22846 ft | 398 kts | 101° |
| 2026-05-04 20:25 | 48.70805 | 0.80391 | 22256 ft | 394 kts | 101° |
| 2026-05-04 20:26 | 48.70321 | 0.84464 | 21671 ft | 392 kts | 101° |
| 2026-05-04 20:26 | 48.69843 | 0.88509 | 21056 ft | 389 kts | 101° |
| 2026-05-04 20:26 | 48.69361 | 0.92546 | 20443 ft | 388 kts | 101° |
| 2026-05-04 20:26 | 48.68886 | 0.96550 | 19907 ft | 385 kts | 101° |
| 2026-05-04 20:27 | 48.68417 | 1.00525 | 19371 ft | 383 kts | 101° |
| 2026-05-04 20:27 | 48.67954 | 1.04471 | 18848 ft | 380 kts | 101° |
| 2026-05-04 20:27 | 48.67501 | 1.08354 | 18330 ft | 378 kts | 101° |
| 2026-05-04 20:27 | 48.67048 | 1.12255 | 17774 ft | 375 kts | 101° |
| 2026-05-04 20:28 | 48.66598 | 1.16113 | 17245 ft | 371 kts | 101° |
| 2026-05-04 20:28 | 48.66149 | 1.19942 | 16718 ft | 368 kts | 101° |
| 2026-05-04 20:28 | 48.65702 | 1.23731 | 16208 ft | 365 kts | 101° |
| 2026-05-04 20:28 | 48.65253 | 1.27503 | 15700 ft | 362 kts | 101° |
| 2026-05-04 20:29 | 48.64807 | 1.31221 | 15187 ft | 359 kts | 101° |
| 2026-05-04 20:29 | 48.64346 | 1.34936 | 14648 ft | 357 kts | 101° |
| 2026-05-04 20:29 | 48.63886 | 1.38620 | 14134 ft | 356 kts | 101° |
| 2026-05-04 20:29 | 48.63425 | 1.42292 | 13660 ft | 353 kts | 101° |
| 2026-05-04 20:30 | 48.62976 | 1.45880 | 13297 ft | 338 kts | 101° |
| 2026-05-04 20:30 | 48.62548 | 1.49293 | 13058 ft | 321 kts | 101° |
| 2026-05-04 20:30 | 48.62148 | 1.52471 | 12876 ft | 303 kts | 101° |
| 2026-05-04 20:30 | 48.61762 | 1.55540 | 12717 ft | 285 kts | 101° |
| 2026-05-04 20:31 | 48.61412 | 1.58348 | 12557 ft | 266 kts | 101° |
| 2026-05-04 20:31 | 48.61077 | 1.61032 | 12387 ft | 247 kts | 102° |
| 2026-05-04 20:31 | 48.60771 | 1.63463 | 12212 ft | 231 kts | 102° |
| 2026-05-04 20:31 | 48.60472 | 1.65838 | 11827 ft | 225 kts | 101° |
| 2026-05-04 20:32 | 48.60178 | 1.68152 | 11359 ft | 223 kts | 102° |
| 2026-05-04 20:32 | 48.59889 | 1.70413 | 10915 ft | 221 kts | 101° |
| 2026-05-04 20:32 | 48.59591 | 1.72687 | 10467 ft | 220 kts | 102° |
| 2026-05-04 20:32 | 48.59294 | 1.74947 | 9982 ft | 221 kts | 102° |
| 2026-05-04 20:33 | 48.58998 | 1.77212 | 9525 ft | 219 kts | 102° |
| 2026-05-04 20:33 | 48.58703 | 1.79458 | 9077 ft | 216 kts | 102° |
| 2026-05-04 20:33 | 48.58410 | 1.81680 | 8623 ft | 214 kts | 102° |
| 2026-05-04 20:33 | 48.58116 | 1.83882 | 8181 ft | 213 kts | 102° |
| 2026-05-04 20:34 | 48.57834 | 1.86066 | 7751 ft | 211 kts | 97° |
| 2026-05-04 20:34 | 48.57738 | 1.88272 | 7343 ft | 210 kts | 92° |
| 2026-05-04 20:34 | 48.57909 | 1.90416 | 7000 ft | 202 kts | 66° |
| 2026-05-04 20:34 | 48.58445 | 1.92266 | 6939 ft | 182 kts | 67° |
| 2026-05-04 20:35 | 48.58942 | 1.94005 | 6517 ft | 182 kts | 67° |
| 2026-05-04 20:35 | 48.59432 | 1.95746 | 6094 ft | 182 kts | 67° |
| 2026-05-04 20:35 | 48.59924 | 1.97499 | 5686 ft | 181 kts | 67° |
| 2026-05-04 20:35 | 48.60445 | 1.99285 | 5096 ft | 187 kts | 63° |
| 2026-05-04 20:36 | 48.61077 | 2.01045 | 4563 ft | 190 kts | 61° |
| 2026-05-04 20:36 | 48.61677 | 2.02697 | 4394 ft | 173 kts | 61° |
| 2026-05-04 20:36 | 48.62223 | 2.04211 | 4265 ft | 154 kts | 62° |
| 2026-05-04 20:36 | 48.62709 | 2.05572 | 4090 ft | 143 kts | 62° |
| 2026-05-04 20:37 | 48.63175 | 2.06886 | 3816 ft | 141 kts | 62° |
| 2026-05-04 20:37 | 48.63655 | 2.08176 | 3523 ft | 139 kts | 60° |
| 2026-05-04 20:37 | 48.64130 | 2.09429 | 3355 ft | 138 kts | 60° |
| 2026-05-04 20:37 | 48.64604 | 2.10711 | 3207 ft | 139 kts | 61° |
| 2026-05-04 20:38 | 48.65067 | 2.11997 | 3016 ft | 138 kts | 61° |
| 2026-05-04 20:38 | 48.65520 | 2.13276 | 2809 ft | 138 kts | 62° |
| 2026-05-04 20:38 | 48.65970 | 2.14556 | 2603 ft | 137 kts | 62° |
| 2026-05-04 20:38 | 48.66418 | 2.15830 | 2408 ft | 138 kts | 62° |
| 2026-05-04 20:39 | 48.66866 | 2.17107 | 2261 ft | 137 kts | 62° |
| 2026-05-04 20:39 | 48.67319 | 2.18402 | 2133 ft | 140 kts | 62° |
| 2026-05-04 20:39 | 48.67777 | 2.19705 | 2025 ft | 140 kts | 61° |
| 2026-05-04 20:39 | 48.68236 | 2.21010 | 1868 ft | 140 kts | 61° |
| 2026-05-04 20:40 | 48.68693 | 2.22309 | 1724 ft | 140 kts | 61° |
| 2026-05-04 20:40 | 48.69150 | 2.23607 | 1557 ft | 140 kts | 61° |
| 2026-05-04 20:40 | 48.69601 | 2.24890 | 1384 ft | 140 kts | 61° |
| 2026-05-04 20:40 | 48.70034 | 2.26212 | 1111 ft | 140 kts | 64° |
| 2026-05-04 20:41 | 48.70497 | 2.27503 | 924 ft | 139 kts | 58° |
| 2026-05-04 20:41 | 48.70965 | 2.28794 | 753 ft | 140 kts | 61° |
| 2026-05-04 20:41 | 48.71429 | 2.30092 | 556 ft | 140 kts | 60° |
| 2026-05-04 20:41 | 48.71881 | 2.31386 | 410 ft | 139 kts | 59° |
| 2026-05-04 20:42 | 48.72345 | 2.32665 | 300 ft | 133 kts | 63° |
| 2026-05-04 20:42 | 48.72642 | 2.33513 | 296 ft | 47 kts | 62° |
| 2026-05-04 20:42 | 48.72718 | 2.33734 | 298 ft | 21 kts | 63° |
| 2026-05-04 20:42 | 48.72765 | 2.33955 | 298 ft | 18 kts | 80° |
| 2026-05-04 20:43 | 48.72778 | 2.34097 | 300 ft | 13 kts | 82° |
| 2026-05-04 20:43 | 48.72790 | 2.34225 | 294 ft | 10 kts | 81° |
| 2026-05-04 20:43 | 48.72802 | 2.34353 | 295 ft | 14 kts | 84° |
| 2026-05-04 20:43 | 48.72818 | 2.34513 | 297 ft | 16 kts | 80° |
| 2026-05-04 20:44 | 48.72826 | 2.34607 | 293 ft | 9 kts | 83° |
| 2026-05-04 20:44 | 48.72836 | 2.34714 | 296 ft | 12 kts | 81° |
| 2026-05-04 20:44 | 48.72850 | 2.34851 | 297 ft | 15 kts | 83° |
| 2026-05-04 20:44 | 48.72864 | 2.35016 | 298 ft | 17 kts | 82° |
| 2026-05-04 20:45 | 48.72882 | 2.35207 | 296 ft | 19 kts | 82° |
| 2026-05-04 20:45 | 48.72903 | 2.35420 | 293 ft | 22 kts | 83° |
| 2026-05-04 20:45 | 48.72950 | 2.35526 | 294 ft | 12 kts | 6° |
| 2026-05-04 20:45 | 48.73029 | 2.35585 | 296 ft | 14 kts | 47° |
| 2026-05-04 20:46 | 48.73079 | 2.35706 | 294 ft | 3 kts | 77° |
| 2026-05-04 20:46 | 48.73072 | 2.35714 | 294 ft | 2 kts | 150° |
| 2026-05-04 20:46 | 48.73037 | 2.35717 | 294 ft | 9 kts | 184° |
| 2026-05-04 20:46 | 48.72993 | 2.35712 | 293 ft | 0 kts | 184° |